Time;durP1;ratioP1;P1;durP2;ratioP2;P2;SDS_P1;SDS_P2;PMS_P1;PMS_P2;Temp;Humidity;BMP_temperature;BMP_pressure;BME280_temperature;BME280_humidity;BME280_pressure;Samples;Min_cycle;Max_cycle;Signal;HPM_P1;HPM_P2
2022/01/25 00:08:42;;;;;;;4.57;3.90;;;17.60;64.90;;;;;;10450830;28;20189;-68
2022/01/25 00:25:58;;;;;;;4.90;4.20;;;17.60;64.80;;;;;;10365325;28;20217;-68
2022/01/25 00:31:24;;;;;;;4.97;4.17;;;17.60;64.90;;;;;;10448469;28;20225;-68
2022/01/25 00:36:46;;;;;;;4.90;4.30;;;17.60;64.90;;;;;;10453940;28;20209;-68
2022/01/25 00:42:10;;;;;;;5.53;4.37;;;17.60;64.80;;;;;;10454592;28;20718;-69
2022/01/25 00:47:32;;;;;;;5.40;4.70;;;17.60;64.80;;;;;;10454644;28;20216;-68
2022/01/25 00:58:36;;;;;;;5.70;4.90;;;17.60;64.80;;;;;;10454030;28;20196;-69
2022/01/25 01:03:58;;;;;;;4.93;4.30;;;17.60;65.40;;;;;;10437492;28;20748;-69
2022/01/25 01:09:22;;;;;;;5.73;4.20;;;17.60;64.80;;;;;;10411033;28;20201;-69
2022/01/25 01:14:59;;;;;;;6.30;4.97;;;17.60;64.80;;;;;;10411663;28;20224;-69
2022/01/25 01:32:17;;;;;;;5.57;4.90;;;17.60;64.80;;;;;;10492687;28;20208;-69
2022/01/25 01:37:59;;;;;;;5.17;4.53;;;17.60;64.80;;;;;;10477425;28;20228;-69
2022/01/25 01:43:30;;;;;;;4.97;4.47;;;17.60;64.80;;;;;;10451306;28;20236;-69
2022/01/25 01:48:56;;;;;;;4.77;4.33;;;17.60;64.80;;;;;;10453249;28;20193;-69
2022/01/25 01:54:18;;;;;;;6.13;4.83;;;17.60;64.80;;;;;;10427585;28;20727;-69
2022/01/25 01:59:40;;;;;;;5.57;4.87;;;17.60;64.80;;;;;;10417798;28;20819;-68
2022/01/25 02:05:04;;;;;;;5.67;4.90;;;17.60;64.80;;;;;;10450564;28;20228;-69
2022/01/25 02:10:28;;;;;;;6.17;4.70;;;17.60;64.80;;;;;;10450486;28;20189;-69
2022/01/25 02:15:50;;;;;;;5.87;4.87;;;17.60;64.80;;;;;;10449837;28;20723;-68
2022/01/25 02:26:56;;;;;;;5.73;4.73;;;17.60;64.80;;;;;;10463741;28;20571;-68
2022/01/25 02:32:18;;;;;;;5.53;4.83;;;17.60;64.80;;;;;;10447574;28;20229;-68
2022/01/25 02:37:41;;;;;;;5.67;5.03;;;17.60;64.80;;;;;;10411026;28;20222;-69
2022/01/25 02:43:04;;;;;;;6.43;5.27;;;17.60;64.80;;;;;;10428321;28;20243;-68
2022/01/25 02:48:32;;;;;;;5.20;4.70;;;17.60;64.80;;;;;;10450741;28;20194;-68
2022/01/25 02:53:55;;;;;;;4.83;4.33;;;17.60;64.80;;;;;;10456180;28;20750;-69
2022/01/25 02:59:18;;;;;;;5.67;4.90;;;17.60;64.80;;;;;;10442365;28;20201;-68
2022/01/25 03:04:41;;;;;;;5.53;4.90;;;17.60;64.80;;;;;;10456470;28;20224;-68
2022/01/25 03:10:05;;;;;;;5.20;4.70;;;17.60;64.80;;;;;;10456303;28;20200;-68
2022/01/25 03:15:42;;;;;;;5.77;4.77;;;17.60;64.80;;;;;;10456728;28;20217;-68
2022/01/25 03:21:20;;;;;;;6.57;5.27;;;17.60;64.80;;;;;;10456028;28;20692;-68
2022/01/25 03:26:44;;;;;;;6.57;5.33;;;17.60;64.80;;;;;;10477574;28;20200;-68
2022/01/25 03:32:07;;;;;;;5.40;4.80;;;17.60;64.80;;;;;;10462318;28;20233;-68
2022/01/25 03:37:29;;;;;;;6.43;5.43;;;17.60;64.80;;;;;;10416263;28;20214;-68
2022/01/25 03:42:54;;;;;;;6.00;4.80;;;17.60;64.80;;;;;;10430479;28;20213;-68
2022/01/25 03:53:56;;;;;;;5.77;5.00;;;17.60;64.80;;;;;;10455079;28;20596;-68
2022/01/25 03:59:20;;;;;;;6.40;5.43;;;17.60;64.80;;;;;;10451836;28;20189;-69
2022/01/25 04:04:42;;;;;;;5.87;5.00;;;17.60;64.80;;;;;;10443650;28;20209;-69
2022/01/25 04:10:05;;;;;;;5.87;4.90;;;17.60;64.80;;;;;;10496159;28;20202;-69
2022/01/25 04:15:28;;;;;;;6.73;5.50;;;17.60;64.80;;;;;;10496487;28;20216;-68
2022/01/25 04:21:04;;;;;;;6.33;5.27;;;17.60;64.80;;;;;;10443335;28;20700;-69
2022/01/25 04:26:27;;;;;;;5.23;4.67;;;17.60;64.80;;;;;;10447968;28;20596;-69
2022/01/25 04:31:50;;;;;;;5.97;5.17;;;17.50;64.70;;;;;;10442575;28;20620;-68
2022/01/25 04:54:21;;;;;;;5.33;4.80;;;17.60;64.70;;;;;;10448271;28;20232;-68
2022/01/25 04:59:50;;;;;;;5.87;4.50;;;17.60;64.60;;;;;;10449160;28;20217;-68
2022/01/25 05:05:18;;;;;;;4.80;4.17;;;17.60;64.60;;;;;;10449356;28;20186;-67
2022/01/25 05:10:49;;;;;;;4.80;4.30;;;17.60;64.60;;;;;;10449807;28;20213;-67
2022/01/25 05:16:27;;;;;;;4.60;4.13;;;17.70;64.60;;;;;;10448724;28;20749;-67
2022/01/25 05:22:05;;;;;;;5.20;4.70;;;17.70;64.60;;;;;;10446186;28;20205;-68
2022/01/25 05:27:30;;;;;;;5.27;4.43;;;17.70;65.10;;;;;;10448852;28;20193;-68
2022/01/25 05:32:52;;;;;;;6.07;4.43;;;17.70;64.50;;;;;;10448503;28;21150;-67
2022/01/25 05:38:15;;;;;;;5.23;4.30;;;17.70;64.50;;;;;;10445983;28;20217;-68
2022/01/25 05:49:29;;;;;;;5.20;4.20;;;17.70;64.50;;;;;;10362079;28;20210;-67
2022/01/25 05:54:53;;;;;;;4.63;4.17;;;17.70;64.50;;;;;;10408012;28;20687;-69
2022/01/25 06:00:16;;;;;;;5.77;4.77;;;17.70;64.40;;;;;;10432240;28;20219;-69
2022/01/25 06:05:38;;;;;;;4.63;4.23;;;17.70;64.40;;;;;;10448763;28;20334;-69
2022/01/25 06:11:02;;;;;;;4.30;3.90;;;17.70;64.40;;;;;;10447893;28;20220;-68
2022/01/25 06:16:24;;;;;;;5.80;4.50;;;17.70;64.40;;;;;;10447437;28;20216;-67
2022/01/25 06:21:46;;;;;;;4.90;4.43;;;17.70;64.50;;;;;;10440752;28;20584;-67
2022/01/25 06:27:10;;;;;;;4.77;4.20;;;17.70;64.50;;;;;;10448598;28;20192;-68
2022/01/25 06:32:32;;;;;;;6.57;4.40;;;17.70;64.50;;;;;;10454082;28;20225;-68
2022/01/25 06:37:54;;;;;;;5.83;4.70;;;17.70;64.40;;;;;;10456949;28;20243;-69
2022/01/25 06:43:18;;;;;;;8.20;4.70;;;17.70;64.40;;;;;;10456107;28;20205;-68
2022/01/25 06:48:40;;;;;;;5.50;4.77;;;17.70;64.30;;;;;;10456893;28;21033;-69
2022/01/25 06:54:02;;;;;;;5.30;4.50;;;17.70;64.30;;;;;;10456000;28;20209;-68
2022/01/25 06:59:25;;;;;;;5.03;4.50;;;17.70;64.30;;;;;;10454895;28;20232;-67
2022/01/25 07:04:48;;;;;;;5.33;4.83;;;17.70;64.30;;;;;;10459596;28;20682;-68
2022/01/25 07:10:10;;;;;;;5.80;4.27;;;17.70;64.30;;;;;;10443826;28;20244;-68
2022/01/25 07:15:34;;;;;;;7.00;5.07;;;17.60;64.40;;;;;;10454090;28;20224;-68
2022/01/25 07:20:56;;;;;;;5.83;5.03;;;17.60;64.50;;;;;;10453856;28;20209;-68
2022/01/25 07:26:18;;;;;;;5.57;4.90;;;17.60;64.80;;;;;;10452824;28;20196;-67
2022/01/25 07:31:42;;;;;;;6.87;4.97;;;17.50;65.20;;;;;;10454296;28;20223;-67
2022/01/25 07:37:05;;;;;;;5.70;4.60;;;17.60;65.10;;;;;;10453025;28;20690;-67
2022/01/25 07:42:28;;;;;;;8.90;5.50;;;17.50;65.10;;;;;;10455266;28;20713;-68
2022/01/25 07:47:52;;;;;;;6.13;4.87;;;17.50;65.20;;;;;;10455474;28;20186;-67
2022/01/25 07:53:14;;;;;;;5.37;4.67;;;17.60;65.30;;;;;;10454472;28;20208;-67
2022/01/25 07:58:37;;;;;;;7.10;4.87;;;17.50;65.30;;;;;;10455851;28;20586;-67
2022/01/25 08:04:00;;;;;;;6.27;4.77;;;17.50;65.40;;;;;;10414264;28;20194;-67
2022/01/25 08:09:22;;;;;;;6.57;4.43;;;17.50;65.40;;;;;;10442985;28;20216;-67
2022/01/25 08:14:44;;;;;;;5.37;4.43;;;17.50;65.50;;;;;;10453603;28;20217;-67
2022/01/25 08:20:09;;;;;;;7.00;4.57;;;17.50;65.50;;;;;;10454632;28;20336;-67
2022/01/25 08:25:31;;;;;;;6.57;4.40;;;17.50;65.50;;;;;;10454540;28;20192;-68
2022/01/25 08:30:53;;;;;;;6.13;4.33;;;17.50;65.50;;;;;;10455825;28;20220;-68
2022/01/25 08:36:17;;;;;;;5.27;4.03;;;17.50;65.60;;;;;;10442369;28;20217;-67
2022/01/25 08:41:39;;;;;;;6.07;4.97;;;17.50;65.60;;;;;;10447832;28;20306;-68
2022/01/25 08:47:01;;;;;;;7.37;4.50;;;17.50;65.60;;;;;;10452158;28;20212;-68
2022/01/25 08:52:27;;;;;;;6.40;4.50;;;17.50;65.70;;;;;;10451789;28;20430;-68
2022/01/25 08:57:49;;;;;;;6.50;5.53;;;17.50;65.70;;;;;;10458972;28;20224;-68
2022/01/25 09:03:12;;;;;;;5.93;4.73;;;17.50;65.70;;;;;;10457334;28;20189;-68
2022/01/25 09:08:36;;;;;;;6.93;4.80;;;17.50;65.80;;;;;;10450722;28;20678;-67
2022/01/25 09:13:59;;;;;;;6.37;5.03;;;17.50;65.70;;;;;;10410894;28;20190;-68
2022/01/25 09:19:21;;;;;;;5.63;4.50;;;17.40;65.70;;;;;;10447144;28;20217;-68
2022/01/25 09:24:45;;;;;;;6.63;5.30;;;17.50;65.70;;;;;;10449762;28;20182;-67
2022/01/25 09:30:07;;;;;;;6.17;5.27;;;17.50;65.70;;;;;;10409461;28;20248;-68
2022/01/25 09:35:30;;;;;;;7.07;4.93;;;17.50;65.70;;;;;;10433715;28;20220;-68
2022/01/25 09:40:54;;;;;;;7.73;5.00;;;17.40;65.80;;;;;;10448070;28;20231;-67
2022/01/25 09:46:16;;;;;;;6.17;4.67;;;17.50;65.90;;;;;;10445864;28;20643;-67
2022/01/25 09:51:40;;;;;;;4.40;4.00;;;17.40;65.90;;;;;;10447238;28;20209;-67
2022/01/25 09:57:06;;;;;;;5.93;4.40;;;17.50;65.90;;;;;;10446306;28;20299;-67
2022/01/25 10:02:43;;;;;;;4.97;4.13;;;17.40;65.90;;;;;;10448332;28;20217;-67
2022/01/25 10:08:08;;;;;;;4.57;4.07;;;17.50;65.80;;;;;;10442892;28;20189;-68
2022/01/25 10:13:33;;;;;;;6.27;4.60;;;17.50;66.00;;;;;;10447837;28;20193;-67
2022/01/25 10:18:58;;;;;;;5.10;4.43;;;17.50;65.90;;;;;;10448421;28;20213;-67
2022/01/25 10:24:22;;;;;;;5.30;4.50;;;17.40;65.90;;;;;;10448993;28;20208;-67
2022/01/25 10:29:49;;;;;;;4.13;3.70;;;17.50;65.90;;;;;;10447550;28;20224;-67
2022/01/25 10:35:15;;;;;;;4.40;4.00;;;17.50;65.60;;;;;;10443582;28;20217;-67
2022/01/25 10:40:38;;;;;;;5.03;4.33;;;17.60;65.60;;;;;;10447942;28;20224;-67
2022/01/25 10:51:09;;;;;;;4.93;4.20;;;17.60;65.40;;;;;;10513103;22;20236;-66
2022/01/25 10:56:41;;;;;;;5.43;4.43;;;17.70;65.30;;;;;;10482639;28;20231;-67
2022/01/25 11:02:06;;;;;;;4.53;3.70;;;17.70;65.20;;;;;;10521594;28;20625;-67
2022/01/25 11:07:38;;;;;;;4.07;3.67;;;17.70;65.30;;;;;;10504263;28;20216;-66
2022/01/25 11:13:04;;;;;;;4.27;3.80;;;17.70;65.10;;;;;;10492938;28;20278;-66
2022/01/25 11:18:26;;;;;;;5.70;3.90;;;17.70;65.20;;;;;;10498680;28;20231;-66
2022/01/25 11:23:50;;;;;;;4.57;4.10;;;17.70;65.10;;;;;;10498396;28;20196;-67
2022/01/25 11:29:13;;;;;;;3.57;3.17;;;17.70;65.10;;;;;;10496628;28;20223;-67
2022/01/25 11:34:36;;;;;;;4.13;3.57;;;17.70;65.10;;;;;;10490693;28;20208;-66
2022/01/25 11:40:00;;;;;;;5.20;3.70;;;17.70;65.10;;;;;;10497938;28;20216;-66
2022/01/25 11:45:23;;;;;;;3.87;3.47;;;17.70;65.00;;;;;;10498578;28;20196;-66
2022/01/25 11:50:45;;;;;;;3.43;3.13;;;17.70;65.00;;;;;;10497792;28;20247;-67
2022/01/25 11:56:11;;;;;;;4.17;3.30;;;17.70;65.00;;;;;;10494130;28;20659;-66
2022/01/25 12:01:35;;;;;;;3.43;3.07;;;17.70;65.00;;;;;;10497496;28;20219;-67
2022/01/25 12:07:02;;;;;;;3.50;3.20;;;17.70;65.00;;;;;;10496337;28;20219;-67
2022/01/25 12:12:25;;;;;;;3.60;3.30;;;17.70;65.00;;;;;;10493003;28;20192;-68
2022/01/25 12:17:47;;;;;;;3.50;3.07;;;17.70;64.90;;;;;;10496310;28;20595;-67
2022/01/25 12:23:16;;;;;;;3.60;3.10;;;17.70;64.90;;;;;;10495751;28;20207;-67
2022/01/25 12:28:44;;;;;;;4.20;3.30;;;17.70;64.90;;;;;;10501825;28;20389;-67
2022/01/25 12:34:25;;;;;;;3.67;3.20;;;17.70;65.50;;;;;;10467424;28;20610;-66
2022/01/25 12:39:47;;;;;;;3.80;3.07;;;17.70;64.60;;;;;;10498801;28;20213;-66
2022/01/25 12:45:16;;;;;;;4.03;3.23;;;17.70;64.90;;;;;;10487470;28;20726;-67
2022/01/25 12:50:41;;;;;;;3.50;3.20;;;17.70;64.90;;;;;;10450375;28;20217;-67
2022/01/25 12:56:06;;;;;;;5.47;3.10;;;17.70;65.00;;;;;;10458374;28;20211;-68
2022/01/25 13:01:30;;;;;;;3.67;3.17;;;17.70;65.00;;;;;;10492470;28;20567;-67
2022/01/25 13:06:52;;;;;;;3.03;2.63;;;17.70;65.00;;;;;;10491819;28;20785;-67
2022/01/25 13:12:23;;;;;;;3.90;3.00;;;17.70;65.10;;;;;;10485116;28;20196;-67
2022/01/25 13:17:46;;;;;;;4.30;3.23;;;17.70;65.10;;;;;;10484830;28;20228;-67
2022/01/25 13:23:08;;;;;;;4.03;2.93;;;17.70;65.10;;;;;;10489044;28;20199;-68
2022/01/25 13:28:38;;;;;;;3.73;2.93;;;17.60;65.70;;;;;;10485699;28;20231;-69
2022/01/25 13:34:03;;;;;;;3.73;3.00;;;17.60;65.30;;;;;;10488147;28;20200;-67
2022/01/25 13:39:26;;;;;;;3.00;2.70;;;17.50;65.40;;;;;;10484331;28;20220;-69
2022/01/25 13:50:30;;;;;;;3.33;2.70;;;17.50;65.70;;;;;;10519584;28;20219;-68
2022/01/25 13:55:56;;;;;;;2.90;2.60;;;17.50;65.70;;;;;;10503427;28;20204;-67
2022/01/25 14:01:21;;;;;;;3.43;3.13;;;17.50;65.70;;;;;;10494634;28;20281;-67
2022/01/25 14:06:45;;;;;;;3.37;2.80;;;17.50;65.70;;;;;;10490912;28;20220;-69
2022/01/25 14:23:30;;;;;;;3.13;2.67;;;17.50;65.80;;;;;;10452253;28;20185;-68
2022/01/25 14:29:05;;;;;;;3.03;2.73;;;17.50;65.70;;;;;;10498329;28;20211;-68
2022/01/25 14:34:29;;;;;;;3.30;3.00;;;17.50;65.90;;;;;;10492484;28;20196;-67
2022/01/25 14:39:52;;;;;;;2.57;2.37;;;17.50;65.90;;;;;;10493601;28;20715;-67
2022/01/25 14:45:20;;;;;;;4.10;2.57;;;17.60;65.80;;;;;;10496611;28;20207;-67
2022/01/25 14:50:42;;;;;;;4.03;2.30;;;17.60;66.00;;;;;;10496030;28;20606;-67
2022/01/25 14:56:07;;;;;;;2.33;2.13;;;17.60;66.10;;;;;;10510713;28;20216;-67
2022/01/25 15:01:30;;;;;;;2.93;2.63;;;17.60;66.20;;;;;;10518102;28;20235;-68
2022/01/25 15:06:52;;;;;;;2.97;2.43;;;17.50;66.20;;;;;;10497633;28;20678;-67
2022/01/25 15:12:16;;;;;;;2.67;2.10;;;17.50;66.40;;;;;;10499290;28;20235;-69
2022/01/25 15:17:38;;;;;;;2.57;2.37;;;17.50;66.50;;;;;;10510442;28;20227;-66
2022/01/25 15:23:02;;;;;;;3.03;2.33;;;17.50;66.30;;;;;;10500082;28;20188;-67
2022/01/25 15:28:36;;;;;;;3.30;2.47;;;17.60;66.50;;;;;;10498795;28;20342;-66
2022/01/25 15:33:58;;;;;;;2.70;2.03;;;17.60;66.70;;;;;;10493798;28;20617;-68
2022/01/25 15:39:21;;;;;;;3.37;2.47;;;17.60;66.80;;;;;;10503040;28;20299;-67
2022/01/25 15:44:46;;;;;;;3.17;2.40;;;17.60;66.90;;;;;;10465226;28;20722;-67
2022/01/25 15:50:09;;;;;;;4.63;2.30;;;17.60;66.60;;;;;;10496966;28;20433;-69
2022/01/25 15:55:31;;;;;;;2.67;2.30;;;17.70;66.60;;;;;;10497357;28;20199;-67
2022/01/25 16:00:55;;;;;;;5.13;2.33;;;17.70;66.50;;;;;;10495679;28;20212;-67
2022/01/25 16:06:17;;;;;;;5.30;2.53;;;17.70;66.40;;;;;;10497052;28;20208;-68
2022/01/25 16:11:39;;;;;;;3.43;2.53;;;17.80;66.40;;;;;;10496748;28;20193;-67
2022/01/25 16:17:04;;;;;;;3.45;2.58;;;17.80;66.30;;;;;;10495997;28;20444;-65
2022/01/25 16:22:26;;;;;;;2.50;2.30;;;18.20;65.70;;;;;;10496146;28;20207;-68
2022/01/25 16:27:48;;;;;;;6.53;2.53;;;17.90;65.90;;;;;;10503724;28;20616;-66
2022/01/25 16:33:11;;;;;;;2.73;2.33;;;17.80;66.30;;;;;;10496127;28;20201;-66
2022/01/25 16:38:34;;;;;;;3.00;2.67;;;17.80;66.30;;;;;;10487989;28;20213;-67
2022/01/25 16:43:56;;;;;;;5.03;2.60;;;17.80;66.40;;;;;;10526964;28;20690;-68
2022/01/25 16:49:19;;;;;;;2.97;2.67;;;17.80;66.50;;;;;;10535306;22;20236;-67
2022/01/25 16:54:41;;;;;;;3.10;2.77;;;17.80;66.50;;;;;;10479928;28;20201;-67
2022/01/25 17:00:08;;;;;;;3.00;2.70;;;17.80;66.50;;;;;;10477448;28;20220;-67
2022/01/25 17:05:32;;;;;;;2.67;2.43;;;17.70;66.40;;;;;;10463384;28;20200;-67
2022/01/25 17:10:55;;;;;;;2.63;2.43;;;17.80;66.50;;;;;;10492770;28;20409;-67
2022/01/25 17:16:17;;;;;;;4.33;2.50;;;17.80;66.40;;;;;;10489286;28;20236;-67
2022/01/25 17:21:41;;;;;;;3.17;2.63;;;17.80;66.40;;;;;;10453594;28;20205;-67
2022/01/25 17:27:03;;;;;;;3.20;2.37;;;17.80;66.30;;;;;;10454549;28;20580;-67
2022/01/25 17:32:25;;;;;;;3.60;2.40;;;17.80;66.40;;;;;;10444553;28;20902;-67
2022/01/25 17:37:49;;;;;;;3.57;2.30;;;17.70;66.40;;;;;;10446357;28;20620;-66
2022/01/25 17:43:11;;;;;;;3.10;2.73;;;17.70;66.50;;;;;;10410907;28;20216;-67
2022/01/25 17:48:33;;;;;;;4.17;2.70;;;17.60;66.50;;;;;;10445575;28;20596;-66
2022/01/25 17:53:57;;;;;;;3.50;2.80;;;17.60;66.50;;;;;;10451209;28;20201;-66
2022/01/25 17:59:19;;;;;;;2.80;2.40;;;17.60;66.60;;;;;;10448468;28;20231;-67
2022/01/25 18:04:41;;;;;;;3.20;2.60;;;17.60;66.70;;;;;;10450133;28;20205;-67
2022/01/25 18:10:07;;;;;;;4.17;2.50;;;17.60;66.60;;;;;;10452736;28;20212;-67
2022/01/25 18:15:29;;;;;;;2.80;2.47;;;17.50;66.60;;;;;;10451117;28;20208;-66
2022/01/25 18:20:51;;;;;;;3.77;3.37;;;17.50;67.20;;;;;;10461888;28;20216;-67
2022/01/25 18:31:45;;;;;;;4.37;2.87;;;17.60;66.60;;;;;;10571388;27;20895;-67
2022/01/25 18:37:07;;;;;;;3.13;2.83;;;17.60;66.50;;;;;;10567662;28;20199;-67
2022/01/25 18:42:33;;;;;;;2.97;2.60;;;17.50;66.40;;;;;;10566574;28;20218;-66
2022/01/25 18:47:59;;;;;;;2.87;2.57;;;17.50;66.40;;;;;;10529972;28;20219;-67
2022/01/25 18:53:21;;;;;;;3.23;2.73;;;17.50;66.40;;;;;;10526591;28;20192;-67
2022/01/25 18:58:43;;;;;;;4.57;3.10;;;17.50;66.40;;;;;;10555223;28;20208;-67
2022/01/25 19:04:07;;;;;;;3.27;2.30;;;17.50;66.40;;;;;;10549815;28;20671;-68
2022/01/25 19:09:29;;;;;;;4.40;2.87;;;17.60;66.40;;;;;;10553808;28;20214;-66
2022/01/25 19:14:51;;;;;;;3.20;2.77;;;17.50;66.30;;;;;;10549942;28;20211;-67
2022/01/25 19:20:15;;;;;;;3.00;2.70;;;17.50;66.40;;;;;;10645481;27;20241;-66
2022/01/25 19:25:37;;;;;;;3.87;2.90;;;17.50;66.40;;;;;;10651891;27;20193;-66
2022/01/25 19:30:59;;;;;;;3.67;2.73;;;17.50;66.40;;;;;;10651390;27;20232;-67
2022/01/25 19:36:23;;;;;;;3.03;2.47;;;17.50;66.40;;;;;;10652617;27;20197;-67
2022/01/25 19:41:46;;;;;;;2.70;2.47;;;17.50;66.40;;;;;;10631111;27;20186;-66
2022/01/25 19:47:12;;;;;;;2.97;2.67;;;17.50;66.50;;;;;;10623259;27;20241;-66
2022/01/25 19:52:41;;;;;;;5.37;3.00;;;17.50;66.40;;;;;;10622300;27;20186;-66
2022/01/25 19:58:04;;;;;;;3.20;2.60;;;17.50;66.40;;;;;;10621080;27;20219;-66
2022/01/25 20:03:26;;;;;;;2.80;2.50;;;17.50;66.40;;;;;;10611808;27;20581;-66
2022/01/25 20:08:50;;;;;;;3.13;2.83;;;17.50;66.50;;;;;;10620286;27;20240;-66
2022/01/25 20:14:12;;;;;;;3.10;2.80;;;17.50;66.40;;;;;;10622871;27;20194;-66
2022/01/25 20:19:34;;;;;;;3.80;3.10;;;17.50;66.40;;;;;;10622802;27;20215;-66
2022/01/25 20:25:05;;;;;;;3.77;2.90;;;17.50;66.70;;;;;;10630095;27;20221;-66
2022/01/25 20:30:36;;;;;;;3.17;2.60;;;17.50;66.40;;;;;;10664330;27;20625;-66
2022/01/25 20:35:59;;;;;;;4.17;2.90;;;17.50;66.40;;;;;;10654216;27;20693;-66
2022/01/25 20:41:23;;;;;;;3.70;3.03;;;17.50;66.40;;;;;;10623415;27;20214;-66
2022/01/25 20:46:46;;;;;;;3.50;3.20;;;17.50;66.40;;;;;;10622880;27;20187;-67
2022/01/25 20:52:08;;;;;;;4.43;3.03;;;17.50;66.40;;;;;;10621825;27;20224;-67
2022/01/25 20:57:31;;;;;;;5.43;3.17;;;17.50;66.40;;;;;;10620361;27;20218;-66
2022/01/25 21:03:04;;;;;;;3.33;2.80;;;17.50;66.40;;;;;;10619590;27;20197;-68
2022/01/25 21:08:26;;;;;;;3.37;2.93;;;17.50;66.40;;;;;;10610672;27;20356;-66
2022/01/25 21:13:50;;;;;;;3.23;2.93;;;17.50;66.40;;;;;;10621951;27;20191;-68
2022/01/25 21:19:13;;;;;;;3.63;3.03;;;17.50;66.40;;;;;;10610162;27;20218;-68
2022/01/25 21:24:35;;;;;;;3.07;2.70;;;17.50;66.20;;;;;;10621410;27;20194;-66
2022/01/25 21:30:03;;;;;;;4.60;3.17;;;17.50;66.30;;;;;;10619885;27;20229;-67
2022/01/25 21:35:26;;;;;;;3.33;3.00;;;17.50;66.20;;;;;;10619399;27;20194;-67
2022/01/25 21:40:49;;;;;;;3.57;3.10;;;17.50;66.30;;;;;;10620522;27;20214;-68
2022/01/25 21:46:13;;;;;;;3.87;3.20;;;17.50;66.30;;;;;;10620568;27;20202;-68
2022/01/25 21:51:35;;;;;;;3.43;3.13;;;17.50;66.20;;;;;;10619018;27;20218;-68
2022/01/25 21:56:57;;;;;;;3.83;3.07;;;17.50;66.30;;;;;;10618974;27;20229;-68
2022/01/25 22:02:27;;;;;;;3.37;3.07;;;17.50;66.30;;;;;;10588257;27;20570;-68
2022/01/25 22:07:54;;;;;;;5.23;3.50;;;17.50;66.30;;;;;;10623160;27;20400;-68
2022/01/25 22:13:21;;;;;;;4.30;3.23;;;17.40;66.30;;;;;;10618620;27;20197;-68
2022/01/25 22:18:45;;;;;;;4.40;3.60;;;17.40;66.30;;;;;;10616739;27;20221;-68
2022/01/25 22:24:10;;;;;;;3.70;3.40;;;17.40;66.20;;;;;;10619349;27;20201;-68
2022/01/25 22:29:32;;;;;;;3.60;3.20;;;17.40;66.30;;;;;;10575508;28;20260;-68
2022/01/25 22:34:56;;;;;;;4.83;3.53;;;17.40;66.20;;;;;;10580736;28;20198;-67
2022/01/25 22:40:21;;;;;;;3.73;3.30;;;17.40;66.00;;;;;;10618365;27;20214;-69
2022/01/25 22:45:43;;;;;;;4.03;3.47;;;17.40;66.00;;;;;;10619379;27;20202;-67
2022/01/25 22:51:07;;;;;;;4.13;3.63;;;17.40;66.00;;;;;;10532967;22;20711;-69
2022/01/25 22:56:29;;;;;;;3.97;3.53;;;17.40;65.90;;;;;;10491850;28;20200;-69
2022/01/25 23:07:30;;;;;;;4.00;3.50;;;17.40;65.80;;;;;;10490825;28;20279;-70
2022/01/25 23:13:25;;;;;;;4.90;3.47;;;17.40;65.70;;;;;;10486771;28;20192;-69
2022/01/25 23:18:45;;;;;;;5.33;3.60;;;17.40;65.70;;;;;;10495670;28;20209;-70
2022/01/25 23:24:10;;;;;;;4.23;3.23;;;17.40;65.80;;;;;;10496312;28;20211;-71
2022/01/25 23:29:32;;;;;;;4.10;3.60;;;17.40;65.70;;;;;;10467143;28;20224;-72
2022/01/25 23:35:05;;;;;;;4.33;3.20;;;17.40;65.70;;;;;;10499050;28;20626;-70
2022/01/25 23:40:33;;;;;;;4.00;3.60;;;17.40;65.60;;;;;;10494898;28;20292;-70
2022/01/25 23:45:56;;;;;;;3.60;3.30;;;17.40;65.60;;;;;;10494165;28;20285;-69
2022/01/25 23:51:20;;;;;;;6.00;3.53;;;17.40;65.60;;;;;;10497421;28;20299;-69
